»·PEaware :: N717TS KHND-KTEX

N717TS :: KHND-KTEX

FLIGHT INFORMATION

Flight Status: Arrived
Operator: Privately registered:
United States
More flights under this callsign
Pilot: Ty S. (2873)
Aircraft: ECLIPSE 500
(EA50)
More flights by this aircraft type
Origin: KHND Henderson
United States
Destination: KTEX Telluride Regl
United States
More flights between these airports :: More routes between these airports
Route: +ACSIN5 DVC ETL
File this flight plan on PilotEdge
Remarks:
Altitude:
(Current/Filed)
41,000ft
Speed:
(Current/Filed)
350kts
Departed: 12-Jan-18 04:44 PM
Arrived: 12-Jan-18 06:04 PM
Distance/Time
Traveled:
366nm/1:20
Distance/Time
To Go:
Arrived

Flight Plot

Page will automatically refresh every two minutes.

Flight plan parsing failed; only flown route is shown


Map Options




Map Legend


Flown Route
Filed Route
Departure Airport
Arrival Airport
Navaid (VOR, NDB)
Fix

Horizontal Profiles

Position Reports

Time Latitude Longitude Heading Altitude Ground
Speed
12-Jan-18 16:26 35.979112 -115.140138 181 2495ft 0kts
12-Jan-18 16:27 35.979112 -115.140138 181 2495ft 0kts
12-Jan-18 16:28 35.979112 -115.140138 181 2495ft 0kts
12-Jan-18 16:29 35.979112 -115.140138 181 2495ft 0kts
12-Jan-18 16:30 35.979112 -115.140138 181 2495ft 0kts
12-Jan-18 16:31 35.979112 -115.140138 181 2495ft 0kts
12-Jan-18 16:32 35.979112 -115.140138 181 2495ft 0kts
12-Jan-18 16:33 35.979112 -115.140138 181 2495ft 0kts
12-Jan-18 16:34 35.979112 -115.140138 181 2495ft 0kts
12-Jan-18 16:35 35.979112 -115.140138 181 2495ft 0kts
12-Jan-18 16:36 35.979112 -115.140138 181 2495ft 0kts
12-Jan-18 16:37 35.979112 -115.140138 181 2495ft 0kts
12-Jan-18 16:38 35.979112 -115.140138 181 2495ft 0kts
12-Jan-18 16:39 35.979112 -115.140138 181 2495ft 0kts
12-Jan-18 16:40 35.979112 -115.140138 181 2495ft 0kts
12-Jan-18 16:41 35.979112 -115.140138 181 2495ft 0kts
12-Jan-18 16:42 35.979112 -115.140138 181 2495ft 0kts
12-Jan-18 16:43 35.978983 -115.138704 58 2495ft 5kts
12-Jan-18 16:44 35.979256 -115.137049 89 2495ft 4kts
12-Jan-18 16:45 35.976124 -115.136408 181 2495ft 19kts
12-Jan-18 16:46 35.971546 -115.136456 180 2495ft 13kts
12-Jan-18 16:47 35.967466 -115.136508 180 2495ft 16kts
12-Jan-18 16:48 35.963271 -115.136524 154 2495ft 5kts
12-Jan-18 16:49 35.963303 -115.135537 359 2495ft 0kts
12-Jan-18 16:50 35.980909 -115.135792 357 2813ft 139kts
12-Jan-18 16:51 36.001267 -115.092272 81 5186ft 188kts
12-Jan-18 16:52 36.002325 -115.015185 118 5980ft 281kts
12-Jan-18 16:53 35.933018 -114.970911 152 8592ft 282kts
12-Jan-18 16:54 35.907574 -114.892952 95 11775ft 242kts
12-Jan-18 16:55 35.897933 -114.809209 91 13851ft 253kts
12-Jan-18 16:56 35.898288 -114.724367 57 15773ft 246kts
12-Jan-18 16:57 35.926506 -114.646122 58 17554ft 255kts
12-Jan-18 16:58 35.955661 -114.565267 58 19175ft 263kts
12-Jan-18 16:59 35.985600 -114.482180 57 20650ft 270kts
12-Jan-18 17:00 36.016275 -114.396842 57 21986ft 277kts
12-Jan-18 17:01 36.047096 -114.310869 57 23171ft 284kts
12-Jan-18 17:02 36.079136 -114.221245 57 24315ft 291kts
12-Jan-18 17:03 36.109266 -114.136719 57 25299ft 297kts
12-Jan-18 17:04 36.142527 -114.043127 57 26325ft 303kts
12-Jan-18 17:05 36.167609 -113.972294 56 27198ft 302kts
12-Jan-18 17:06 36.201174 -113.877370 56 28152ft 307kts
12-Jan-18 17:07 36.234572 -113.782545 56 29199ft 306kts
12-Jan-18 17:08 36.268333 -113.686368 55 30248ft 302kts
12-Jan-18 17:09 36.302237 -113.589673 55 30971ft 310kts
12-Jan-18 17:10 36.335811 -113.493470 55 31886ft 309kts
12-Jan-18 17:11 36.369266 -113.397337 55 32771ft 307kts
12-Jan-18 17:12 36.401311 -113.304905 55 33567ft 305kts
12-Jan-18 17:13 36.434550 -113.208846 55 34205ft 309kts
12-Jan-18 17:14 36.467951 -113.111854 55 35040ft 303kts
12-Jan-18 17:15 36.501194 -113.015231 55 35587ft 308kts
12-Jan-18 17:16 36.534384 -112.918201 54 36131ft 311kts
12-Jan-18 17:17 36.567889 -112.819891 53 36862ft 306kts
12-Jan-18 17:18 36.600967 -112.722777 53 37494ft 303kts
12-Jan-18 17:19 36.633809 -112.626128 53 37909ft 307kts
12-Jan-18 17:20 36.666101 -112.530614 53 38509ft 303kts
12-Jan-18 17:21 36.698219 -112.435106 52 39246ft 292kts
12-Jan-18 17:22 36.729026 -112.343608 53 39520ft 299kts
12-Jan-18 17:23 36.760657 -112.249155 53 39890ft 298kts
12-Jan-18 17:24 36.791929 -112.155431 53 40339ft 293kts
12-Jan-18 17:25 36.822560 -112.063338 52 40793ft 287kts
12-Jan-18 17:26 36.852538 -111.972948 52 41249ft 279kts
12-Jan-18 17:27 36.882341 -111.883063 52 41326ft 287kts
12-Jan-18 17:28 36.913074 -111.789954 53 41327ft 298kts
12-Jan-18 17:29 36.945003 -111.692810 54 41328ft 309kts
12-Jan-18 17:30 36.977938 -111.592236 54 41327ft 319kts
12-Jan-18 17:31 37.011651 -111.488928 55 41328ft 328kts
12-Jan-18 17:32 37.046093 -111.382997 55 41329ft 335kts
12-Jan-18 17:33 37.078545 -111.282841 56 41319ft 339kts
12-Jan-18 17:34 37.113158 -111.175633 56 41333ft 342kts
12-Jan-18 17:35 37.148249 -111.066395 56 41334ft 341kts
12-Jan-18 17:36 37.183002 -110.957840 55 41334ft 337kts
12-Jan-18 17:37 37.217426 -110.850058 54 41335ft 334kts
12-Jan-18 17:38 37.251329 -110.743585 54 41335ft 331kts
12-Jan-18 17:39 37.285115 -110.637013 54 41335ft 329kts
12-Jan-18 17:40 37.318376 -110.531685 54 41378ft 326kts
12-Jan-18 17:41 37.351388 -110.426742 54 41427ft 324kts
12-Jan-18 17:42 37.381341 -110.331217 54 41439ft 323kts
12-Jan-18 17:43 37.413782 -110.227361 54 41438ft 321kts
12-Jan-18 17:44 37.446259 -110.123235 55 41013ft 335kts
12-Jan-18 17:45 37.482724 -110.006016 57 39059ft 388kts
12-Jan-18 17:46 37.522985 -109.875315 58 37091ft 416kts
12-Jan-18 17:47 37.564614 -109.739558 58 35112ft 421kts
12-Jan-18 17:48 37.606492 -109.602581 58 33132ft 422kts
12-Jan-18 17:49 37.647992 -109.466181 59 31159ft 418kts
12-Jan-18 17:50 37.685084 -109.343680 60 29364ft 413kts
12-Jan-18 17:51 37.724950 -109.211391 60 27353ft 401kts
12-Jan-18 17:52 37.763339 -109.083526 61 25343ft 385kts
12-Jan-18 17:53 37.799727 -108.961799 63 23581ft 352kts
12-Jan-18 17:54 37.835066 -108.856081 61 21562ft 324kts
12-Jan-18 17:55 37.870936 -108.752368 62 19550ft 325kts
12-Jan-18 17:56 37.905866 -108.651128 63 17537ft 308kts
12-Jan-18 17:57 37.939319 -108.553906 64 15530ft 301kts
12-Jan-18 17:58 37.971841 -108.459081 65 13532ft 295kts
12-Jan-18 17:59 38.003008 -108.367895 66 11996ft 300kts
12-Jan-18 18:00 38.033142 -108.278238 73 11971ft 294kts
12-Jan-18 18:01 38.018313 -108.178176 105 11972ft 293kts
12-Jan-18 18:02 37.991787 -108.080531 121 12026ft 286kts
12-Jan-18 18:03 37.958045 -108.003974 112 11373ft 229kts
12-Jan-18 18:04 37.940935 -107.938039 103 10847ft 170kts
12-Jan-18 18:05 37.934173 -107.883832 79 10160ft 136kts
12-Jan-18 18:06 37.951640 -107.897502 284 9802ft 150kts
12-Jan-18 18:07 37.934742 -107.936560 159 10557ft 172kts
12-Jan-18 18:08 37.928288 -107.883610 35 10113ft 166kts
12-Jan-18 18:09 37.952451 -107.902350 286 9094ft 125kts
12-Jan-18 18:10 37.955511 -107.916858 103 9081ft 21kts
12-Jan-18 18:11 37.953666 -107.908059 103 9081ft 27kts
12-Jan-18 18:12 37.953309 -107.901107 33 9081ft 4kts
12-Jan-18 18:13 37.953547 -107.901171 246 9081ft 0kts
12-Jan-18 18:14 37.953547 -107.901171 246 9081ft 0kts
12-Jan-18 18:15 37.953717 -107.901097 164 9081ft 0kts
12-Jan-18 18:16 37.953717 -107.901097 164 9081ft 0kts
12-Jan-18 18:17 37.953717 -107.901097 164 9081ft 0kts
12-Jan-18 18:18 37.953717 -107.901097 164 9081ft 0kts
12-Jan-18 18:19 37.953717 -107.901097 164 9081ft 0kts
12-Jan-18 18:20 37.953717 -107.901097 164 9081ft 0kts
12-Jan-18 18:21 37.953717 -107.901097 164 9081ft 0kts
12-Jan-18 18:22 37.953717 -107.901097 164 9081ft 0kts

Navigation Log

Ident Type
Flight plan parsing failed, navigation log unavailable